createdAt,value
2019-02-21T00:00:45.810Z,19.30
2019-02-21T00:03:50.367Z,19.20
2019-02-21T00:06:55.099Z,19.30
2019-02-21T00:09:59.927Z,19.30
2019-02-21T00:13:04.779Z,19.30
2019-02-21T00:16:09.617Z,19.30
2019-02-21T00:19:14.417Z,19.20
2019-02-21T00:22:19.348Z,19.20
2019-02-21T00:25:24.070Z,19.90
2019-02-21T00:28:28.925Z,19.60
2019-02-21T00:31:33.827Z,19.20
2019-02-21T00:34:38.476Z,19.30
2019-02-21T00:37:43.425Z,19.20
2019-02-21T00:40:48.220Z,19.30
2019-02-21T00:43:52.847Z,19.20
2019-02-21T00:46:57.573Z,19.70
2019-02-21T00:50:02.228Z,19.10
2019-02-21T00:53:07.132Z,19.10
2019-02-21T00:56:11.868Z,19.20
2019-02-21T00:59:16.525Z,19.10
2019-02-21T01:02:21.321Z,19.10
2019-02-21T01:05:26.040Z,19.10
2019-02-21T01:08:30.571Z,19.10
2019-02-21T01:11:35.530Z,19.10
2019-02-21T01:14:40.221Z,19.10
2019-02-21T01:17:44.994Z,19.20
2019-02-21T01:20:49.896Z,19.20
2019-02-21T01:23:54.749Z,19.20
2019-02-21T01:26:59.604Z,19.30
2019-02-21T01:30:04.396Z,19.20
2019-02-21T01:33:09.202Z,19.10
2019-02-21T01:36:14.140Z,19.20
2019-02-21T01:39:18.986Z,19.10
2019-02-21T01:42:23.801Z,19.20
2019-02-21T01:45:28.551Z,19.20
2019-02-21T01:48:33.367Z,19.20
2019-02-21T01:51:38.104Z,19.20
2019-02-21T01:54:42.955Z,19.20
2019-02-21T01:57:47.872Z,19.20
2019-02-21T02:00:52.588Z,19.20
2019-02-21T02:03:57.213Z,19.20
2019-02-21T02:07:01.960Z,19.20
2019-02-21T02:10:07.090Z,19.30
2019-02-21T02:13:23.706Z,19.60
2019-02-21T02:16:18.367Z,19.50
2019-02-21T02:19:23.221Z,19.80
2019-02-21T02:22:27.877Z,19.80
2019-02-21T02:25:34.956Z,19.80
2019-02-21T02:28:39.848Z,19.70
2019-02-21T02:31:44.569Z,19.50
2019-02-21T02:34:49.326Z,19.50
2019-02-21T02:37:55.353Z,19.40
2019-02-21T02:41:00.089Z,19.40
2019-02-21T02:44:04.903Z,19.30
2019-02-21T02:47:09.563Z,19.50
2019-02-21T02:50:14.504Z,19.30
2019-02-21T02:53:19.213Z,19.30
2019-02-21T02:56:23.946Z,19.30
2019-02-21T02:59:40.043Z,19.30
2019-02-21T03:02:35.259Z,19.20
2019-02-21T03:05:40.050Z,19.20
2019-02-21T03:08:44.708Z,19.20
2019-02-21T03:11:51.807Z,19.10
2019-02-21T03:14:55.893Z,19.20
2019-02-21T03:18:00.721Z,19.10
2019-02-21T03:21:05.577Z,19.20
2019-02-21T03:24:10.485Z,19.10
2019-02-21T03:27:15.225Z,19.10
2019-02-21T03:30:20.032Z,19.20
2019-02-21T03:33:24.995Z,19.20
2019-02-21T03:36:29.910Z,19.10
2019-02-21T03:39:34.748Z,19.20
2019-02-21T03:42:39.566Z,19.20
2019-02-21T03:45:44.181Z,19.50
2019-02-21T03:48:49.041Z,19.40
2019-02-21T03:51:53.945Z,19.30
2019-02-21T03:54:58.689Z,19.30
2019-02-21T03:58:03.521Z,19.30
2019-02-21T04:01:08.257Z,19.40
2019-02-21T04:04:13.180Z,20.10
2019-02-21T04:07:18.127Z,19.40
2019-02-21T04:10:23.045Z,19.50
2019-02-21T04:13:27.787Z,19.60
2019-02-21T04:16:32.644Z,19.60
2019-02-21T04:19:37.437Z,19.70
2019-02-21T04:22:42.484Z,19.80
2019-02-21T04:25:46.983Z,20.20
2019-02-21T04:28:51.931Z,20.10
2019-02-21T04:31:56.747Z,20.00
2019-02-21T04:35:01.685Z,20.80
2019-02-21T04:38:07.245Z,20.40
2019-02-21T04:41:12.182Z,20.60
2019-02-21T04:44:16.893Z,20.70
2019-02-21T04:47:21.859Z,20.90
2019-02-21T04:50:26.661Z,20.90
2019-02-21T04:53:31.401Z,20.40
2019-02-21T04:56:36.359Z,20.70
2019-02-21T04:59:41.253Z,19.90
2019-02-21T05:02:45.863Z,19.40
2019-02-21T05:05:50.388Z,19.70
2019-02-21T05:08:55.241Z,18.90
2019-02-21T05:12:00.060Z,18.30
2019-02-21T05:15:04.601Z,18.20
2019-02-21T05:18:09.119Z,17.70
2019-02-21T05:21:13.747Z,17.40
2019-02-21T05:24:18.346Z,17.40
2019-02-21T05:27:27.100Z,17.50
2019-02-21T05:30:31.926Z,17.60
2019-02-21T05:33:58.969Z,17.70
2019-02-21T05:37:19.240Z,17.70
2019-02-21T05:40:42.079Z,17.70
2019-02-21T05:44:14.335Z,17.80
2019-02-21T05:47:43.773Z,17.80
2019-02-21T05:50:59.157Z,17.70
2019-02-21T05:54:12.760Z,17.80
2019-02-21T05:57:51.412Z,17.70
2019-02-21T06:01:11.774Z,17.70
2019-02-21T06:04:35.335Z,17.90
2019-02-21T06:07:52.510Z,17.80
2019-02-21T06:11:25.060Z,17.80
2019-02-21T06:14:46.783Z,17.90
2019-02-21T06:18:13.548Z,17.80
2019-02-21T06:21:28.591Z,17.40
2019-02-21T06:24:44.343Z,17.80
2019-02-21T06:28:07.461Z,17.80
2019-02-21T06:31:15.521Z,17.80
2019-02-21T06:34:20.278Z,17.70
2019-02-21T06:37:25.064Z,17.70
2019-02-21T06:40:29.703Z,17.70
2019-02-21T06:43:34.422Z,17.70
2019-02-21T06:46:39.352Z,17.80
2019-02-21T06:49:44.073Z,18.20
2019-02-21T06:52:48.594Z,17.70
2019-02-21T06:55:53.438Z,17.70
2019-02-21T06:58:58.074Z,17.60
2019-02-21T07:02:02.929Z,17.70
2019-02-21T07:05:07.833Z,17.80
2019-02-21T07:08:12.653Z,17.60
2019-02-21T07:11:17.455Z,17.60
2019-02-21T07:14:22.005Z,17.80
2019-02-21T07:17:27.503Z,17.60
2019-02-21T07:20:32.270Z,17.60
2019-02-21T07:23:43.568Z,17.60
2019-02-21T07:26:43.173Z,17.60
2019-02-21T07:29:48.014Z,17.70
2019-02-21T07:32:52.739Z,17.60
2019-02-21T07:35:57.362Z,17.50
2019-02-21T07:39:16.255Z,17.50
2019-02-21T07:42:08.660Z,17.50
2019-02-21T07:45:13.591Z,17.70
2019-02-21T07:48:18.112Z,17.50
2019-02-21T07:51:22.839Z,17.40
2019-02-21T07:54:27.791Z,17.00
2019-02-21T07:57:32.607Z,17.40
2019-02-21T08:00:37.423Z,17.50
2019-02-21T08:03:45.936Z,17.50
2019-02-21T08:06:48.617Z,17.40
2019-02-21T08:09:53.440Z,17.30
2019-02-21T08:12:58.386Z,17.10
2019-02-21T08:16:03.329Z,16.80
2019-02-21T08:19:08.142Z,16.60
2019-02-21T08:22:12.772Z,16.70
2019-02-21T08:25:19.257Z,16.50
2019-02-21T08:28:24.057Z,16.70
2019-02-21T08:31:28.693Z,16.80
2019-02-21T08:34:37.832Z,17.00
2019-02-21T08:37:42.475Z,17.00
2019-02-21T08:40:47.288Z,17.10
2019-02-21T08:43:51.996Z,17.00
2019-02-21T08:46:56.584Z,16.70
2019-02-21T08:50:01.576Z,16.40
2019-02-21T08:53:08.372Z,16.00
2019-02-21T08:56:12.567Z,16.20
2019-02-21T08:59:17.296Z,16.10
2019-02-21T09:02:22.119Z,15.90
2019-02-21T09:05:26.857Z,16.20
2019-02-21T09:08:35.042Z,15.90
2019-02-21T09:11:37.954Z,16.50
2019-02-21T09:14:42.776Z,15.90
2019-02-21T09:17:47.617Z,15.90
2019-02-21T09:20:52.645Z,15.70
2019-02-21T09:23:57.253Z,15.90
2019-02-21T09:27:01.917Z,16.60
2019-02-21T09:30:08.070Z,15.90
2019-02-21T09:33:17.497Z,16.10
2019-02-21T09:36:19.267Z,16.10
2019-02-21T09:39:25.184Z,16.00
2019-02-21T09:42:29.846Z,16.10
2019-02-21T09:45:34.465Z,16.00
2019-02-21T09:48:39.192Z,16.00
2019-02-21T09:51:43.922Z,16.00
2019-02-21T09:54:48.645Z,16.10
2019-02-21T09:57:53.472Z,16.20
2019-02-21T10:00:58.124Z,16.40
2019-02-21T10:04:02.986Z,16.50
2019-02-21T10:07:08.652Z,16.50
2019-02-21T10:10:15.182Z,16.50
2019-02-21T10:13:19.880Z,16.50
2019-02-21T10:16:24.716Z,16.60
2019-02-21T10:19:29.627Z,16.40
2019-02-21T10:22:34.386Z,16.60
2019-02-21T10:25:39.189Z,16.50
2019-02-21T10:28:45.186Z,16.50
2019-02-21T10:31:49.915Z,16.40
2019-02-21T10:34:54.432Z,16.40
2019-02-21T10:37:59.371Z,16.30
2019-02-21T10:41:04.184Z,16.30
2019-02-21T10:44:09.126Z,16.30
2019-02-21T10:47:13.942Z,16.40
2019-02-21T10:50:19.292Z,16.50
2019-02-21T10:53:24.103Z,17.00
2019-02-21T10:56:28.973Z,16.40
2019-02-21T10:59:33.781Z,16.90
2019-02-21T11:02:38.684Z,16.30
2019-02-21T11:05:43.169Z,16.40
2019-02-21T11:08:48.066Z,16.30
2019-02-21T11:11:52.909Z,16.30
2019-02-21T11:14:57.588Z,16.60
2019-02-21T11:18:02.354Z,16.60
2019-02-21T11:21:06.965Z,16.60
2019-02-21T11:24:11.912Z,16.60
2019-02-21T11:27:16.749Z,16.80
2019-02-21T11:30:21.772Z,16.80
2019-02-21T11:33:26.688Z,16.70
2019-02-21T11:36:31.113Z,16.80
2019-02-21T11:39:35.949Z,16.70
2019-02-21T11:42:40.881Z,16.70
2019-02-21T11:45:53.438Z,17.00
2019-02-21T11:48:54.095Z,16.70
2019-02-21T11:52:09.620Z,16.80
2019-02-21T11:55:05.265Z,16.70
2019-02-21T11:58:10.056Z,16.70
2019-02-21T12:01:14.900Z,16.80
2019-02-21T12:04:19.612Z,17.00
2019-02-21T12:07:24.459Z,16.90
2019-02-21T12:10:29.181Z,16.80
2019-02-21T12:13:34.114Z,16.90
2019-02-21T12:16:38.649Z,17.10
2019-02-21T12:19:43.573Z,16.90
2019-02-21T12:22:48.518Z,16.90
2019-02-21T12:25:53.225Z,17.00
2019-02-21T12:28:58.161Z,16.90
2019-02-21T12:32:03.006Z,17.00
2019-02-21T12:35:07.910Z,17.00
2019-02-21T12:38:12.869Z,17.00
2019-02-21T12:41:17.566Z,17.00
2019-02-21T12:44:22.224Z,17.10
2019-02-21T12:47:27.020Z,17.00
2019-02-21T12:50:31.771Z,17.00
2019-02-21T12:53:36.599Z,17.00
2019-02-21T12:56:41.325Z,17.20
2019-02-21T12:59:46.057Z,17.20
2019-02-21T13:02:50.996Z,17.20
2019-02-21T13:05:55.826Z,17.20
2019-02-21T13:09:02.137Z,17.20
2019-02-21T13:12:06.929Z,17.20
2019-02-21T13:15:12.669Z,17.10
2019-02-21T13:18:17.502Z,17.20
2019-02-21T13:21:22.327Z,17.20
2019-02-21T13:24:27.136Z,17.30
2019-02-21T13:27:31.886Z,17.30
2019-02-21T13:30:36.500Z,17.20
2019-02-21T13:33:41.458Z,17.30
2019-02-21T13:36:46.400Z,17.60
2019-02-21T13:39:51.203Z,17.20
2019-02-21T13:42:56.019Z,17.30
2019-02-21T13:46:00.772Z,17.80
2019-02-21T13:49:05.689Z,17.30
2019-02-21T13:52:10.509Z,17.40
2019-02-21T13:55:15.133Z,17.40
2019-02-21T13:58:19.873Z,17.40
2019-02-21T14:01:24.414Z,17.30
2019-02-21T14:04:29.221Z,17.40
2019-02-21T14:07:34.071Z,17.50
2019-02-21T14:10:38.888Z,17.40
2019-02-21T14:13:43.714Z,17.50
2019-02-21T14:16:48.355Z,17.80
2019-02-21T14:19:53.233Z,17.40
2019-02-21T14:22:57.998Z,17.50
2019-02-21T14:26:02.853Z,17.50
2019-02-21T14:29:07.673Z,13.80
2019-02-21T14:32:12.377Z,14.60
2019-02-21T14:35:17.244Z,13.10
2019-02-21T14:38:28.033Z,12.80
2019-02-21T14:41:28.428Z,12.90
2019-02-21T14:44:33.144Z,14.10
2019-02-21T14:47:38.988Z,13.80
2019-02-21T14:50:43.728Z,13.50
2019-02-21T14:53:48.672Z,13.60
2019-02-21T14:56:53.590Z,13.00
2019-02-21T14:59:58.496Z,14.70
2019-02-21T15:03:03.364Z,15.80
2019-02-21T15:06:08.179Z,16.70
2019-02-21T15:09:13.041Z,17.70
2019-02-21T15:12:17.848Z,18.90
2019-02-21T15:15:22.672Z,19.80
2019-02-21T15:18:27.522Z,20.60
2019-02-21T15:21:32.352Z,21.40
2019-02-21T15:24:37.194Z,22.60
2019-02-21T15:27:41.909Z,23.70
2019-02-21T15:30:46.844Z,23.70
2019-02-21T15:33:51.659Z,24.30
2019-02-21T15:36:56.398Z,24.90
2019-02-21T15:40:01.123Z,24.60
2019-02-21T15:43:05.943Z,24.60
2019-02-21T15:46:11.035Z,24.60
2019-02-21T15:49:15.820Z,24.10
2019-02-21T15:52:22.536Z,24.60
2019-02-21T15:55:26.913Z,24.30
2019-02-21T15:58:31.740Z,24.10
2019-02-21T16:01:46.892Z,24.10
2019-02-21T16:04:43.058Z,23.80
2019-02-21T16:07:47.971Z,23.60
2019-02-21T16:10:52.804Z,23.60
2019-02-21T16:14:03.268Z,23.70
2019-02-21T16:17:04.092Z,24.10
2019-02-21T16:20:10.226Z,24.30
2019-02-21T16:23:15.082Z,24.70
2019-02-21T16:26:21.433Z,25.00
2019-02-21T16:29:26.185Z,25.30
2019-02-21T16:32:30.931Z,25.20
2019-02-21T16:35:35.847Z,25.20
2019-02-21T16:38:40.691Z,24.60
2019-02-21T16:41:45.443Z,24.20
2019-02-21T16:44:50.359Z,23.80
2019-02-21T16:47:55.131Z,23.60
2019-02-21T16:50:59.863Z,23.50
2019-02-21T16:54:04.654Z,23.40
2019-02-21T16:57:09.450Z,23.40
2019-02-21T17:00:15.436Z,22.90
2019-02-21T17:03:20.244Z,21.50
2019-02-21T17:06:25.188Z,22.10
2019-02-21T17:09:30.244Z,21.80
2019-02-21T17:12:37.010Z,21.70
2019-02-21T17:15:41.472Z,21.80
2019-02-21T17:18:45.972Z,21.90
2019-02-21T17:21:50.769Z,21.90
2019-02-21T17:24:55.672Z,22.00
2019-02-21T17:28:00.438Z,22.10
2019-02-21T17:31:05.150Z,22.10
2019-02-21T17:34:10.101Z,22.00
2019-02-21T17:37:24.850Z,22.00
2019-02-21T17:40:24.380Z,21.90
2019-02-21T17:43:29.179Z,21.90
2019-02-21T17:46:34.175Z,21.90
2019-02-21T17:49:39.881Z,21.80
2019-02-21T17:52:44.691Z,22.10
2019-02-21T17:55:49.571Z,22.10
2019-02-21T17:58:54.376Z,22.70
2019-02-21T18:01:59.284Z,22.10
2019-02-21T18:05:04.189Z,22.30
2019-02-21T18:08:09.093Z,22.30
2019-02-21T18:11:14.033Z,22.40
2019-02-21T18:14:19.038Z,22.50
2019-02-21T18:17:23.865Z,22.50
2019-02-21T18:20:28.490Z,22.60
2019-02-21T18:23:33.234Z,22.60
2019-02-21T18:26:38.183Z,22.90
2019-02-21T18:29:43.828Z,22.70
2019-02-21T18:32:50.406Z,23.40
2019-02-21T18:35:55.300Z,23.00
2019-02-21T18:39:00.049Z,23.10
2019-02-21T18:42:04.970Z,23.00
2019-02-21T18:45:09.785Z,23.00
2019-02-21T18:48:14.657Z,23.20
2019-02-21T18:51:19.522Z,23.40
2019-02-21T18:54:25.263Z,23.30
2019-02-21T18:57:30.026Z,23.00
2019-02-21T19:00:35.022Z,22.90
2019-02-21T19:03:40.875Z,22.20
2019-02-21T19:06:45.676Z,22.40
2019-02-21T19:09:50.512Z,22.40
2019-02-21T19:12:55.260Z,22.30
2019-02-21T19:16:00.029Z,22.30
2019-02-21T19:19:04.876Z,22.30
2019-02-21T19:22:09.693Z,22.70
2019-02-21T19:25:14.625Z,22.30
2019-02-21T19:28:19.251Z,22.40
2019-02-21T19:31:24.090Z,22.60
2019-02-21T19:34:28.901Z,22.20
2019-02-21T19:37:33.635Z,22.30
2019-02-21T19:40:38.501Z,22.20
2019-02-21T19:43:43.106Z,22.30
2019-02-21T19:46:47.841Z,22.30
2019-02-21T19:49:52.666Z,22.30
2019-02-21T19:52:57.599Z,22.50
2019-02-21T19:56:02.408Z,22.30
2019-02-21T19:59:07.145Z,22.40
2019-02-21T20:02:11.984Z,22.80
2019-02-21T20:05:16.816Z,22.00
2019-02-21T20:08:21.913Z,22.30
2019-02-21T20:11:26.671Z,22.30
2019-02-21T20:14:31.120Z,22.80
2019-02-21T20:17:35.722Z,22.40
2019-02-21T20:20:40.531Z,22.30
2019-02-21T20:23:45.637Z,22.90
2019-02-21T20:26:51.610Z,22.50
2019-02-21T20:29:56.161Z,22.40
2019-02-21T20:33:01.086Z,22.50
2019-02-21T20:36:05.942Z,22.80
2019-02-21T20:39:13.048Z,22.50
2019-02-21T20:42:18.040Z,22.40
2019-02-21T20:45:24.792Z,22.30
2019-02-21T20:48:30.648Z,22.10
2019-02-21T20:51:35.414Z,22.00
2019-02-21T20:54:40.445Z,21.90
2019-02-21T20:57:45.292Z,21.30
2019-02-21T21:00:50.242Z,21.20
2019-02-21T21:03:55.255Z,20.90
2019-02-21T21:06:59.972Z,20.70
2019-02-21T21:10:06.015Z,20.70
2019-02-21T21:13:12.394Z,20.40
2019-02-21T21:16:17.117Z,20.20
2019-02-21T21:19:21.964Z,20.20
2019-02-21T21:22:26.888Z,20.00
2019-02-21T21:25:31.982Z,20.00
2019-02-21T21:28:36.886Z,19.90
2019-02-21T21:31:41.727Z,19.80
2019-02-21T21:34:46.416Z,19.70
2019-02-21T21:37:51.448Z,19.60
2019-02-21T21:40:56.284Z,19.40
2019-02-21T21:44:01.113Z,19.40
2019-02-21T21:47:05.940Z,19.30
2019-02-21T21:50:11.065Z,19.20
2019-02-21T21:53:16.122Z,19.10
2019-02-21T21:56:21.715Z,19.30
2019-02-21T21:59:26.489Z,18.90
2019-02-21T22:02:31.317Z,18.90
2019-02-21T22:05:36.145Z,18.90
2019-02-21T22:08:41.086Z,18.70
2019-02-21T22:11:45.610Z,18.70
2019-02-21T22:14:50.645Z,18.60
2019-02-21T22:17:55.381Z,18.80
2019-02-21T22:21:00.306Z,18.50
2019-02-21T22:24:05.358Z,18.40
2019-02-21T22:27:10.074Z,19.40
2019-02-21T22:30:16.236Z,18.80
2019-02-21T22:33:21.065Z,18.70
2019-02-21T22:36:25.895Z,18.40
2019-02-21T22:39:30.718Z,18.90
2019-02-21T22:42:35.434Z,18.70
2019-02-21T22:45:40.278Z,18.80
2019-02-21T22:48:47.441Z,19.10
2019-02-21T22:51:51.673Z,19.20
2019-02-21T22:54:56.516Z,18.90
2019-02-21T22:58:01.334Z,19.20
2019-02-21T23:01:26.555Z,18.70
2019-02-21T23:04:55.921Z,18.90
2019-02-21T23:08:43.750Z,18.90
2019-02-21T23:11:48.472Z,18.50
2019-02-21T23:14:53.287Z,18.80
2019-02-21T23:17:58.020Z,18.70
2019-02-21T23:21:02.855Z,18.60
2019-02-21T23:24:09.452Z,18.60
2019-02-21T23:27:14.362Z,18.30
2019-02-21T23:30:19.079Z,18.30
2019-02-21T23:33:24.992Z,18.40
2019-02-21T23:36:29.580Z,18.10
2019-02-21T23:39:38.617Z,18.00
2019-02-21T23:42:42.479Z,18.60
2019-02-21T23:45:47.328Z,17.90
2019-02-21T23:48:52.048Z,18.10
2019-02-21T23:51:56.802Z,18.00
2019-02-21T23:55:01.501Z,17.90
2019-02-21T23:58:06.246Z,18.00
